• Join FlightAware (Why Join?)
  • Login
  • US Flag 
01:42AM EDT


 

Airport Tracker/Info


-or-


 

Live Flight TrackerFlight Track Log ✈ XOJ549 ✈ 29-Jun-2013 ✈ KHOU - KMRY

Flight Track Log - Related Links

Times and Time Zones

All times are in EDT time to prevent confusion due to time zone crossing. See the XOJ549 flight status page for this flight to view local times or setup timezone preferences in your user account.

Time Position Orientation Groundspeed Altitude Reporting Facility
EDT Latitude Longitude Course Direction KTS MPH feet Rate Location/Type
11:43AM 29.6353 -95.2892 277° West 163 188 700  Level Houston Center
11:44AM 29.6447 -95.3217 288° West 208 239 2,600 3,180 Climbing Houston Center
11:45AM 29.6889 -95.3669 318° Northwest 213 245 5,900 2,940 Climbing Houston Center
11:46AM 29.7372 -95.4139 320° Northwest 266 306 8,300 2,640 Climbing Houston Center
11:47AM 29.7700 -95.4992 294° West 319 367 11,100 2,700 Climbing Houston Center
11:48AM 29.7594 -95.6133 264° West 364 419 13,900 2,160 Climbing Houston Center
11:49AM 29.9170 -96.0367 277° West  Level FlightAware Approximate
11:49AM 29.7617 -95.7369 271° West 358 412 16,000  Level Houston Center
11:50AM 29.7656 -95.8544 272° West 384 442 18,700 2,400 Climbing Houston Center
11:51AM 29.7453 -95.9797 259° West 398 458 21,000 2,340 Climbing Houston Center
11:52AM 29.7456 -96.1269 270° West 407 468 23,600 2,340 Climbing Houston Center
11:53AM 29.7458 -96.2553 270° West 403 464 25,900 2,220 Climbing Houston Center
11:54AM 29.7808 -96.3744 289° West 397 457 28,200 1,920 Climbing Houston Center
11:55AM 29.8275 -96.5178 291° West 403 464 29,900 1,440 Climbing Houston Center
11:56AM 29.8667 -96.6431 290° West 416 479 31,200 1,140 Climbing Houston Center
11:57AM 29.9078 -96.7711 290° West 428 493 32,300 960 Climbing Houston Center
11:58AM 29.9494 -96.9056 290° West 443 510 33,200 900 Climbing Houston Center
11:59AM 29.9925 -97.0439 290° West 459 528 34,200 960 Climbing Houston Center
12:00PM 30.0461 -97.2097 291° West 463 533 35,300 1,140 Climbing Houston Center
12:01PM 30.1078 -97.3456 298° West 465 535 36,600 1,140 Climbing Houston Center
12:02PM 30.1681 -97.4800 297° West 465 535 37,700 1,020 Climbing Houston Center
12:03PM 30.2264 -97.6147 297° West 463 533 38,800 960 Climbing Houston Center
12:04PM 30.2858 -97.7503 297° West 464 534 39,800 960 Climbing Houston Center
12:05PM 30.3450 -97.8847 297° West 463 533 40,900 960 Climbing Houston Center
12:06PM 30.4031 -98.0142 298° West 451 519 41,800 720 Climbing Houston Center
12:08PM 30.4583 -98.1442 296° West 445 512 42,500 540 Climbing Houston Center
12:09PM 30.5242 -98.2958 297° West 445 512 43,000 240 Climbing Houston Center
12:10PM 30.5803 -98.4256 297° West 447 514 43,000  Level Houston Center
12:11PM 30.6375 -98.5583 297° West 453 521 43,000  Level Houston Center
12:12PM 30.6950 -98.6903 297° West 453 521 43,000  Level Houston Center
12:13PM 30.7519 -98.8222 297° West 452 520 43,000  Level Houston Center
12:14PM 30.8072 -98.9553 296° West 452 520 43,000  Level Houston Center
12:15PM 30.8636 -99.0864 297° West 450 518 43,000  Level Houston Center
12:16PM 30.9247 -99.2303 296° West 450 518 43,000  Level Houston Center
12:17PM 30.9792 -99.3611 296° West 451 519 43,000  Level Houston Center
12:18PM 31.0364 -99.4925 297° West 455 524 43,000  Level Houston Center
12:19PM 31.0900 -99.6233 296° West 451 519 43,000  Level Houston Center
12:20PM 31.1447 -99.7556 296° West 454 522 43,000  Level Houston Center
12:21PM 31.2092 -99.9125 296° West 450 518 43,000 60 Level Houston Center
12:22PM 31.2633 -100.0428 296° West 447 514 43,200 240 Climbing Houston Center
12:23PM 31.3169 -100.1717 296° West 443 510 43,600 360 Climbing Houston Center
12:24PM 31.3703 -100.3003 296° West 442 509 44,000 300 Climbing Houston Center
12:25PM 31.4214 -100.4269 295° West 437 503 44,200 240 Climbing Fort Worth Center
12:26PM 31.4725 -100.5578 295° West 437 503 44,500 360 Climbing Fort Worth Center
12:27PM 31.5314 -100.7011 296° West 444 511 45,000 240 Climbing Fort Worth Center
12:28PM 31.5825 -100.8247 296° West 437 503 45,000  Level Fort Worth Center
12:29PM 31.6331 -100.9536 295° West 431 496 45,000  Level Fort Worth Center
12:30PM 31.6858 -101.0825 296° West 431 496 45,000  Level Fort Worth Center
12:31PM 31.7256 -101.2161 289° West 431 496 45,000  Level Fort Worth Center
12:32PM 31.7556 -101.3344 287° West 431 496 45,000  Level Fort Worth Center
12:33PM 31.7864 -101.4753 284° West 437 503 45,000  Level Fort Worth Center
12:34PM 31.8153 -101.6158 284° West 437 503 45,000  Level Fort Worth Center
12:35PM 31.8481 -101.7567 285° West 437 503 45,000  Level Fort Worth Center
12:36PM 31.9000 -101.8839 296° West 437 503 45,000  Level Fort Worth Center
12:37PM 31.9536 -102.0161 296° West 437 503 45,000  Level Fort Worth Center
12:38PM 32.0072 -102.1464 296° West 447 514 45,000  Level Fort Worth Center
12:39PM 32.0586 -102.2789 295° West 447 514 45,000  Level Fort Worth Center
12:40PM 32.1097 -102.4092 295° West 447 514 45,000  Level Fort Worth Center
12:41PM 32.1608 -102.5419 294° West 447 514 45,000  Level Fort Worth Center
12:42PM 32.2175 -102.6850 295° West 447 514 45,000  Level Fort Worth Center
12:43PM 32.2703 -102.8158 296° West 447 514 45,000  Level Fort Worth Center
12:44PM 32.3231 -102.9444 296° West 442 509 45,000  Level Fort Worth Center
12:45PM 32.3758 -103.0756 296° West 442 509 45,000  Level Fort Worth Center
12:46PM 32.4261 -103.2089 294° West 442 509 45,000  Level Fort Worth Center
12:47PM 32.4958 -103.3808 296° West 439 505 45,000  Level Albuquerque Center
12:49PM 32.5464 -103.5117 295° West 438 504 45,000  Level Albuquerque Center
12:50PM 32.5961 -103.6431 294° West 438 504 45,000  Level Albuquerque Center
12:51PM 32.6567 -103.8031 294° West 439 505 45,000  Level Albuquerque Center
12:52PM 32.7086 -103.9328 295° West 437 503 45,000  Level Albuquerque Center
12:53PM 32.7619 -104.0769 294° West 442 509 45,000  Level Albuquerque Center
12:54PM 32.8125 -104.2094 294° West 441 507 45,000  Level Albuquerque Center
12:55PM 32.8661 -104.3519 294° West 439 505 45,000  Level Albuquerque Center
12:56PM 32.9153 -104.4867 294° West 441 507 45,000  Level Albuquerque Center
12:57PM 32.9686 -104.6325 294° West 444 511 45,000  Level Albuquerque Center
12:58PM 33.0189 -104.7683 294° West 448 516 45,000  Level Albuquerque Center
12:59PM 33.0683 -104.9036 294° West 445 512 45,000  Level Albuquerque Center
01:00PM 33.1347 -105.0411 300° West 440 506 45,000  Level Albuquerque Center
01:01PM 33.2100 -105.1589 307° West 444 511 45,000  Level Albuquerque Center
01:02PM 33.2892 -105.2842 307° West 442 509 45,000  Level Albuquerque Center
01:03PM 33.3606 -105.4042 305° West 443 510 45,000  Level Albuquerque Center
01:04PM 33.4333 -105.5228 306° West 443 510 45,000  Level Albuquerque Center
01:05PM 33.4894 -105.6633 296° West 448 516 45,000  Level Albuquerque Center
01:06PM 33.5344 -105.8019 291° West 449 517 45,000  Level Albuquerque Center
01:07PM 33.5803 -105.9394 292° West 448 516 45,000  Level Albuquerque Center
01:08PM 33.6242 -106.0756 291° West 446 513 45,000  Level Albuquerque Center
01:09PM 33.6694 -106.2131 292° West 447 514 45,000  Level Albuquerque Center
01:10PM 33.7239 -106.3792 292° West 447 514 45,000  Level Albuquerque Center
01:11PM 33.7694 -106.5194 291° West 451 519 45,000  Level Albuquerque Center
01:12PM 33.8139 -106.6558 291° West 446 513 45,000  Level Albuquerque Center
01:13PM 33.8583 -106.7958 291° West 447 514 45,000  Level Albuquerque Center
01:14PM 33.9028 -106.9350 291° West 449 517 45,000  Level Albuquerque Center
01:15PM 33.9453 -107.0717 291° West 443 510 45,000  Level Albuquerque Center
01:16PM 33.9919 -107.2386 289° West 441 507 45,000  Level Albuquerque Center
01:17PM 34.0333 -107.3767 290° West 439 505 45,000  Level Albuquerque Center
01:19PM 34.0731 -107.5139 289° West 438 504 45,000  Level Albuquerque Center
01:20PM 34.1133 -107.6539 289° West 440 506 45,000  Level Albuquerque Center
01:21PM 34.1522 -107.7931 289° West 440 506 45,000  Level Albuquerque Center
01:22PM 34.1997 -107.9628 289° West 444 511 45,000  Level Albuquerque Center
01:23PM 34.2403 -108.1042 289° West 446 513 45,000  Level Albuquerque Center
01:24PM 34.2836 -108.2517 290° West 447 514 45,000  Level Albuquerque Center
01:25PM 34.3192 -108.3858 288° West 445 512 45,000  Level Albuquerque Center
01:26PM 34.3656 -108.5472 289° West 446 513 45,000  Level Albuquerque Center
01:27PM 34.4033 -108.6800 289° West 439 505 45,000  Level Albuquerque Center
01:28PM 34.4472 -108.8400 288° West 443 510 45,000  Level Albuquerque Center
01:29PM 34.4853 -108.9794 288° West 449 517 45,000  Level Albuquerque Center
01:30PM 34.5228 -109.1192 288° West 451 519 45,000  Level Albuquerque Center
01:31PM 34.5678 -109.2867 288° West 457 526 45,000  Level Albuquerque Center
01:32PM 34.6050 -109.4267 288° West 457 526 45,000  Level Albuquerque Center
01:33PM 34.6481 -109.5872 288° West 451 519 45,000  Level Albuquerque Center
01:34PM 34.6856 -109.7294 288° West 454 522 45,000  Level Albuquerque Center
01:35PM 34.7300 -109.8942 288° West 456 525 45,000  Level Albuquerque Center
01:36PM 34.7667 -110.0358 288° West 457 526 45,000  Level Albuquerque Center
01:37PM 34.8097 -110.2003 288° West 457 526 45,000  Level Albuquerque Center
01:38PM 34.8458 -110.3397 288° West 455 524 45,000  Level Albuquerque Center
01:39PM 34.8828 -110.4783 288° West 450 518 45,000  Level Albuquerque Center
01:40PM 34.9261 -110.6378 288° West 445 512 45,000  Level Albuquerque Center
01:41PM 34.9622 -110.7686 289° West 440 506 45,000  Level Albuquerque Center
01:42PM 34.9994 -110.9092 288° West 438 504 45,000  Level Albuquerque Center
01:43PM 35.0383 -111.0514 289° West 440 506 45,000  Level Albuquerque Center
01:44PM 35.0847 -111.2233 288° West 445 512 45,000  Level Albuquerque Center
01:45PM 35.1222 -111.3647 288° West 441 507 45,000  Level Albuquerque Center
01:46PM 35.1597 -111.5053 288° West 439 505 45,000  Level Albuquerque Center
01:47PM 35.1972 -111.6469 288° West 439 505 45,000  Level Albuquerque Center
01:48PM 35.2400 -111.8069 288° West 440 506 45,000  Level Albuquerque Center
01:50PM 35.2772 -111.9483 288° West 440 506 45,000  Level Albuquerque Center
01:51PM 35.3133 -112.0911 287° West 441 507 45,000  Level Albuquerque Center
01:51PM 35.3353 -112.1747 288° West 440 506 45,000  Level Los Angeles Center
01:52PM 35.3794 -112.3456 288° West 442 509 45,000  Level Los Angeles Center
01:53PM 35.4164 -112.4853 288° West 438 504 45,000  Level Los Angeles Center
01:54PM 35.4569 -112.6456 287° West 434 499 45,000  Level Los Angeles Center
01:55PM 35.4933 -112.7892 287° West 438 504 45,000  Level Los Angeles Center
01:56PM 35.5289 -112.9308 287° West 435 501 45,000 -240 Level Los Angeles Center
01:57PM 35.5667 -113.0831 287° West 433 498 44,600 -480 Descending Los Angeles Center
01:58PM 35.6044 -113.2333 287° West 455 524 44,100 -540 Descending Los Angeles Center
01:59PM 35.6378 -113.3647 287° West 454 522 43,600 -540 Descending Los Angeles Center
02:01PM 35.6808 -113.5414 287° West 458 527 43,000 -300 Descending Los Angeles Center
02:02PM 35.7150 -113.6814 287° West 457 526 43,000  Level Los Angeles Center
02:03PM 35.7508 -113.8306 287° West 454 522 43,000  Level Los Angeles Center
02:04PM 35.7931 -114.0089 286° West 450 518 43,000  Level Los Angeles Center
02:05PM 35.8297 -114.1569 287° West 450 518 43,000  Level Los Angeles Center
02:06PM 35.8650 -114.3058 286° West 452 520 43,000  Level Los Angeles Center
02:07PM 35.9006 -114.4547 286° West 449 517 43,000  Level Los Angeles Center
02:08PM 35.9350 -114.6036 286° West 449 517 43,000  Level Los Angeles Center
02:09PM 35.9703 -114.7531 286° West 452 520 43,000  Level Los Angeles Center
02:10PM 36.0108 -114.9350 285° West 455 524 43,000  Level Los Angeles Center
02:11PM 36.0406 -115.0861 284° West 454 522 43,000  Level Los Angeles Center
02:12PM 36.0722 -115.2389 284° West 456 525 43,000  Level Los Angeles Center
02:13PM 36.1019 -115.3889 284° West 449 517 43,000  Level Los Angeles Center
02:14PM 36.1306 -115.5419 283° West 451 519 43,000  Level Los Angeles Center
02:15PM 36.1606 -115.6978 283° West 457 526 43,000  Level Los Angeles Center
02:16PM 36.1911 -115.8525 284° West 455 524 43,000  Level Los Angeles Center
02:17PM 36.2239 -116.0189 284° West 456 525 43,000  Level Los Angeles Center
02:18PM 36.2533 -116.1711 284° West 456 525 43,000  Level Los Angeles Center
02:19PM 36.2831 -116.3272 283° West 454 522 43,000  Level Los Angeles Center
02:20PM 36.3125 -116.4806 283° West 457 526 43,000  Level Los Angeles Center
02:21PM 36.3406 -116.6331 283° West 457 526 43,000  Level Los Angeles Center
02:22PM 36.3808 -116.8483 283° West 459 528 43,000  Level Los Angeles Center
02:23PM 36.4097 -117.0017 283° West 459 528 43,000  Level Los Angeles Center
02:25PM 36.4375 -117.1564 283° West 461 531 43,000  Level Los Angeles Center
02:26PM 36.4653 -117.3106 283° West 461 531 43,000  Level Los Angeles Center
02:27PM 36.4936 -117.4664 283° West 462 532 43,000  Level Los Angeles Center
02:28PM 36.5275 -117.6519 283° West 463 533 43,000  Level Los Angeles Center
02:29PM 36.5542 -117.8075 282° West 461 531 43,000 -600 Level Los Angeles Center
02:30PM 36.5806 -117.9628 282° West 460 529 41,700 -1,380 Descending Los Angeles Center
02:31PM 36.6075 -118.1511 280° West 462 532 39,900 -1,620 Descending Los Angeles Center
02:32PM 36.6025 -118.3083 268° West 458 527 38,400 -1,620 Descending Los Angeles Center
02:33PM 36.5983 -118.4939 268° West 452 520 36,600 -1,500 Descending Los Angeles Center
02:34PM 36.5933 -118.6542 268° West 460 529 35,100 -1,380 Descending Los Angeles Center
02:35PM 36.5894 -118.7564 267° West 456 525 34,100 -1,740 Descending Oakland Center
02:36PM 36.5825 -118.9525 268° West 468 539 32,300 -1,620 Descending Oakland Center
02:37PM 36.5781 -119.1153 268° West 473 544 30,800 -1,500 Descending Oakland Center
02:38PM 36.5733 -119.2772 268° West 471 542 29,300 -1,500 Descending Oakland Center
02:39PM 36.5672 -119.4367 267° West 466 536 27,800 -1,500 Descending Oakland Center
02:40PM 36.5622 -119.5953 268° West 464 534 26,200 -1,620 Descending Oakland Center
02:41PM 36.5569 -119.7497 268° West 456 525 24,600 -1,800 Descending Oakland Center
02:42PM 36.5503 -119.9286 267° West 439 505 22,600 -1,860 Descending Oakland Center
02:43PM 36.5431 -120.0728 266° West 429 494 20,900 -1,680 Descending Oakland Center
02:44PM 36.5375 -120.2156 267° West 421 484 19,200 -1,800 Descending Oakland Center
02:45PM 36.5308 -120.3575 267° West 415 478 17,300 -1,800 Descending Oakland Center
02:46PM 36.5250 -120.4928 267° West 395 455 15,600 -1,740 Descending Oakland Center
02:47PM 36.5189 -120.6253 267° West 387 445 13,800 -1,800 Descending Oakland Center
02:48PM 36.5128 -120.7528 267° West 373 429 12,000 -1,860 Descending Oakland Center
02:49PM 36.5061 -120.9028 267° West 365 420 10,000 -1,260 Descending Oakland Center
02:50PM 36.5006 -121.0167 267° West 350 403 9,500 -1,200 Descending Oakland Center
02:51PM 36.4958 -121.1131 267° West 311 358 7,600 -1,620 Descending Oakland Center
02:52PM 36.4914 -121.2075 267° West 290 334 6,200 -840 Descending Oakland Center
02:53PM 36.4867 -121.2956 266° West 274 315 6,000 -120 Descending Oakland Center
02:54PM 36.4806 -121.3858 265° West 266 306 6,000 -60 Level Oakland Center
02:55PM 36.4756 -121.4825 266° West 274 315 5,900 -420 Descending Oakland Center
02:56PM 36.4906 -121.5647 283° West 259 298 5,200 -780 Descending Oakland Center
02:57PM 36.5169 -121.6317 296° West 233 268 4,400 5,280 Descending Oakland Center
02:58PM 36.5325 -121.7131 283° West 228 262 16,000 -1,080 Climbing Oakland Center
03:00PM 36.5667 -121.7667 308° West 155 178 2,000 -6,480 Descending Northern Cal TRACON
03:01PM 36.5833 -121.8167 293° West 131 151 800 -1,140 Descending Northern Cal TRACON